Time;durP1;ratioP1;P1;durP2;ratioP2;P2;SDS_P1;SDS_P2;PMS_P1;PMS_P2;Temp;Humidity;BMP_temperature;BMP_pressure;BME280_temperature;BME280_humidity;BME280_pressure;Samples;Min_cycle;Max_cycle;Signal;HPM_P1;HPM_P2
2023/01/03 00:01:39;;;;;;;3.13;1.80;;;;;;;;;;7385292;19;20406;-76
2023/01/03 00:04:04;;;;;;;2.05;1.40;;;;;;;;;;7387667;19;20000;-76
2023/01/03 00:06:36;;;;;;;1.88;1.50;;;;;;;;;;7389094;19;20024;-76
2023/01/03 00:09:04;;;;;;;2.63;1.63;;;;;;;;;;7391502;19;20014;-77
2023/01/03 00:14:22;;;;;;;2.17;1.58;;;;;;;;;;7395189;19;20009;-76
2023/01/03 00:16:50;;;;;;;2.53;1.70;;;;;;;;;;7395721;19;20536;-76
2023/01/03 00:19:15;;;;;;;3.20;1.90;;;;;;;;;;7397443;19;20002;-77
2023/01/03 00:21:41;;;;;;;3.75;1.90;;;;;;;;;;7394975;19;20006;-76
2023/01/03 00:24:07;;;;;;;4.40;2.00;;;;;;;;;;7395521;19;20003;-76
2023/01/03 00:26:33;;;;;;;2.33;1.58;;;;;;;;;;7394103;19;20020;-77
2023/01/03 00:28:59;;;;;;;3.17;1.77;;;;;;;;;;7398582;19;20014;-74
2023/01/03 00:31:24;;;;;;;3.40;1.73;;;;;;;;;;7397651;19;19995;-76
2023/01/03 00:33:50;;;;;;;3.05;1.90;;;;;;;;;;7396508;19;20101;-75
2023/01/03 00:36:16;;;;;;;2.13;1.80;;;;;;;;;;7394841;19;20032;-76
2023/01/03 00:38:41;;;;;;;5.38;1.80;;;;;;;;;;7395893;19;19998;-75
2023/01/03 00:41:16;;;;;;;4.45;1.98;;;;;;;;;;7392955;19;20074;-75
2023/01/03 00:43:44;;;;;;;3.30;1.80;;;;;;;;;;7392721;19;20003;-77
2023/01/03 00:46:11;;;;;;;5.28;2.20;;;;;;;;;;7390794;19;20020;-76
2023/01/03 00:48:37;;;;;;;3.30;2.03;;;;;;;;;;7393648;19;20007;-76
2023/01/03 00:51:14;;;;;;;3.72;2.20;;;;;;;;;;7393677;19;20409;-76
2023/01/03 00:53:40;;;;;;;4.50;2.40;;;;;;;;;;7392136;19;20029;-76
2023/01/03 00:56:08;;;;;;;2.90;1.88;;;;;;;;;;7395163;19;20003;-75
2023/01/03 00:58:34;;;;;;;3.30;2.17;;;;;;;;;;7395589;19;20006;-76
2023/01/03 01:01:06;;;;;;;5.68;2.35;;;;;;;;;;7395605;19;20063;-75
2023/01/03 01:03:31;;;;;;;;;;;;;;;;;;7394274;19;20468;-75
2023/01/03 01:05:56;;;;;;;3.03;2.10;;;;;;;;;;7395072;19;19989;-75
2023/01/03 01:08:22;;;;;;;3.95;2.20;;;;;;;;;;7396662;19;20033;-77
2023/01/03 01:11:00;;;;;;;4.30;2.38;;;;;;;;;;7397407;19;20003;-75
2023/01/03 01:13:30;;;;;;;5.05;2.65;;;;;;;;;;7395347;19;20030;-76
2023/01/03 01:16:00;;;;;;;4.68;2.10;;;;;;;;;;7394715;19;19994;-76
2023/01/03 01:18:25;;;;;;;4.97;2.20;;;;;;;;;;7397530;19;19994;-76
2023/01/03 01:20:51;;;;;;;3.83;2.10;;;;;;;;;;7396632;19;19999;-75
2023/01/03 01:23:16;;;;;;;4.95;2.45;;;;;;;;;;7395817;19;19990;-76
2023/01/03 01:25:42;;;;;;;3.28;2.08;;;;;;;;;;7393506;19;19998;-76
2023/01/03 01:28:07;;;;;;;3.05;2.13;;;;;;;;;;7396603;19;20074;-76
2023/01/03 01:30:32;;;;;;;4.60;2.47;;;;;;;;;;7399114;19;20020;-76
2023/01/03 01:32:57;;;;;;;6.30;2.13;;;;;;;;;;7394143;19;19995;-77
2023/01/03 01:35:23;;;;;;;4.85;2.20;;;;;;;;;;7395183;19;20010;-76
2023/01/03 01:37:48;;;;;;;3.47;2.05;;;;;;;;;;7397826;19;20002;-76
2023/01/03 01:40:13;;;;;;;6.88;2.33;;;;;;;;;;7395641;19;20445;-77
2023/01/03 01:45:23;;;;;;;4.15;2.08;;;;;;;;;;7400295;19;20448;-75
2023/01/03 01:47:58;;;;;;;3.08;2.00;;;;;;;;;;7395972;19;19999;-76
2023/01/03 01:50:42;;;;;;;3.63;2.08;;;;;;;;;;7395597;19;20050;-76
2023/01/03 01:53:15;;;;;;;3.60;2.05;;;;;;;;;;7392437;19;20472;-76
2023/01/03 01:55:50;;;;;;;4.90;2.40;;;;;;;;;;7393275;19;20018;-71
2023/01/03 01:58:16;;;;;;;4.70;2.63;;;;;;;;;;7392396;19;20014;-69
2023/01/03 02:00:43;;;;;;;3.30;1.88;;;;;;;;;;7391954;19;20494;-71
2023/01/03 02:03:09;;;;;;;3.83;2.20;;;;;;;;;;7395704;19;20011;-71
2023/01/03 02:05:37;;;;;;;3.70;2.10;;;;;;;;;;7393151;19;19998;-71
2023/01/03 02:08:03;;;;;;;4.25;2.33;;;;;;;;;;7395045;19;19998;-71
2023/01/03 02:11:02;;;;;;;3.47;2.40;;;;;;;;;;7393062;19;20456;-70
2023/01/03 02:13:30;;;;;;;3.65;2.20;;;;;;;;;;7391453;19;20041;-71
2023/01/03 02:16:17;;;;;;;3.03;2.17;;;;;;;;;;7391472;19;20025;-71
2023/01/03 02:19:11;;;;;;;4.18;2.20;;;;;;;;;;7394978;19;20097;-70
2023/01/03 02:21:52;;;;;;;6.90;2.42;;;;;;;;;;7393523;19;19999;-70
2023/01/03 02:24:41;;;;;;;4.38;2.50;;;;;;;;;;7389350;19;20003;-72
2023/01/03 02:27:20;;;;;;;3.92;2.40;;;;;;;;;;7390431;19;20397;-72
2023/01/03 02:30:07;;;;;;;3.30;2.15;;;;;;;;;;7390143;19;19999;-71
2023/01/03 02:32:51;;;;;;;4.38;2.30;;;;;;;;;;7390961;19;20142;-71
2023/01/03 02:35:35;;;;;;;3.78;2.20;;;;;;;;;;7391832;19;20018;-71
2023/01/03 02:38:09;;;;;;;3.47;2.33;;;;;;;;;;7393466;19;20035;-70
2023/01/03 02:41:04;;;;;;;7.88;2.50;;;;;;;;;;7394238;19;20002;-71
2023/01/03 02:43:41;;;;;;;3.80;2.40;;;;;;;;;;7391786;19;20007;-71
2023/01/03 02:46:36;;;;;;;5.05;2.70;;;;;;;;;;7394285;19;20009;-71
2023/01/03 02:49:10;;;;;;;4.70;2.80;;;;;;;;;;7394931;19;20602;-71
2023/01/03 02:51:45;;;;;;;5.65;2.80;;;;;;;;;;7394776;19;20437;-71
2023/01/03 02:54:16;;;;;;;6.10;2.88;;;;;;;;;;7394005;19;20006;-70
2023/01/03 02:56:47;;;;;;;4.57;2.67;;;;;;;;;;7389840;19;20473;-72
2023/01/03 02:59:21;;;;;;;6.05;2.70;;;;;;;;;;7391595;19;19991;-72
2023/01/03 03:01:50;;;;;;;4.85;2.70;;;;;;;;;;7387975;19;20433;-71
2023/01/03 03:04:15;;;;;;;4.07;2.78;;;;;;;;;;7389206;19;20006;-71
2023/01/03 03:06:49;;;;;;;7.07;3.10;;;;;;;;;;7393657;19;20004;-70
2023/01/03 03:09:15;;;;;;;4.43;2.50;;;;;;;;;;7395333;19;19998;-70
2023/01/03 03:14:46;;;;;;;4.50;2.67;;;;;;;;;;7388118;19;20020;-71
2023/01/03 03:17:16;;;;;;;4.60;2.97;;;;;;;;;;7393940;19;19999;-71
2023/01/03 03:25:26;;;;;;;5.63;2.85;;;;;;;;;;7390647;19;20046;-70
2023/01/03 03:30:44;;;;;;;5.40;2.90;;;;;;;;;;7392812;19;20149;-70
2023/01/03 03:33:12;;;;;;;5.38;3.10;;;;;;;;;;7392431;19;19995;-71
2023/01/03 03:36:14;;;;;;;6.78;3.00;;;;;;;;;;7389451;19;20002;-71
2023/01/03 03:38:43;;;;;;;5.22;3.00;;;;;;;;;;7389087;19;20409;-71
2023/01/03 03:47:44;;;;;;;5.68;3.38;;;;;;;;;;7386315;19;20128;-71
2023/01/03 03:50:21;;;;;;;6.55;3.28;;;;;;;;;;7388879;19;20314;-70
2023/01/03 03:52:50;;;;;;;8.55;3.67;;;;;;;;;;7388129;19;20024;-71
2023/01/03 03:55:21;;;;;;;5.55;3.45;;;;;;;;;;7388832;19;20337;-70
2023/01/03 03:58:02;;;;;;;6.53;3.67;;;;;;;;;;7389009;19;19999;-71
2023/01/03 04:00:31;;;;;;;8.55;3.58;;;;;;;;;;7388819;19;20235;-70
2023/01/03 04:03:00;;;;;;;6.20;3.33;;;;;;;;;;7387810;19;20022;-71
2023/01/03 04:05:31;;;;;;;8.45;3.80;;;;;;;;;;7388690;19;20018;-71
2023/01/03 04:07:56;;;;;;;5.68;3.42;;;;;;;;;;7388981;19;20429;-71
2023/01/03 04:10:23;;;;;;;6.75;3.38;;;;;;;;;;7386937;19;19995;-71
2023/01/03 04:12:49;;;;;;;6.07;3.33;;;;;;;;;;7387235;19;19999;-71
2023/01/03 04:15:15;;;;;;;5.80;3.25;;;;;;;;;;7388496;19;20398;-71
2023/01/03 04:17:41;;;;;;;9.32;4.25;;;;;;;;;;7391930;19;20002;-70
2023/01/03 04:20:07;;;;;;;6.40;3.42;;;;;;;;;;7391247;19;20305;-71
2023/01/03 04:22:33;;;;;;;6.18;3.88;;;;;;;;;;7385328;19;20009;-70
2023/01/03 04:24:58;;;;;;;7.25;4.10;;;;;;;;;;7388297;19;20388;-70
2023/01/03 04:27:23;;;;;;;8.05;4.18;;;;;;;;;;7387559;19;20460;-70
2023/01/03 04:29:49;;;;;;;7.07;3.92;;;;;;;;;;7391510;19;20015;-70
2023/01/03 04:32:14;;;;;;;8.75;4.00;;;;;;;;;;7392031;19;20002;-71
2023/01/03 04:34:40;;;;;;;7.47;4.28;;;;;;;;;;7390231;19;20001;-70
2023/01/03 04:37:05;;;;;;;6.95;4.40;;;;;;;;;;7390295;19;20294;-70
2023/01/03 04:39:30;;;;;;;7.63;4.60;;;;;;;;;;7389127;19;19999;-72
2023/01/03 04:41:56;;;;;;;10.38;4.20;;;;;;;;;;7386655;19;19995;-70
2023/01/03 04:44:21;;;;;;;7.03;4.18;;;;;;;;;;7387013;19;20390;-70
2023/01/03 04:46:46;;;;;;;7.53;4.13;;;;;;;;;;7385290;19;20013;-71
2023/01/03 04:49:12;;;;;;;9.65;4.57;;;;;;;;;;7388047;19;20002;-72
2023/01/03 04:51:37;;;;;;;11.82;4.43;;;;;;;;;;7388459;19;20071;-71
2023/01/03 04:54:04;;;;;;;11.20;4.82;;;;;;;;;;7388306;19;20247;-71
2023/01/03 04:56:32;;;;;;;9.18;4.93;;;;;;;;;;7386033;19;20007;-70
2023/01/03 04:58:58;;;;;;;8.68;5.47;;;;;;;;;;7391518;19;20006;-70
2023/01/03 05:01:24;;;;;;;8.68;5.22;;;;;;;;;;7393588;19;20009;-71
2023/01/03 05:03:50;;;;;;;10.02;5.22;;;;;;;;;;7396556;19;19998;-72
2023/01/03 05:06:16;;;;;;;10.43;5.32;;;;;;;;;;7327327;19;20010;-72
2023/01/03 05:08:46;;;;;;;9.93;5.45;;;;;;;;;;7394810;19;20357;-71
2023/01/03 05:11:12;;;;;;;10.90;5.35;;;;;;;;;;7398330;19;20003;-72
2023/01/03 05:13:37;;;;;;;8.43;5.35;;;;;;;;;;7394521;19;20066;-71
2023/01/03 05:16:08;;;;;;;10.93;5.35;;;;;;;;;;7393535;19;19995;-71
2023/01/03 05:18:34;;;;;;;11.18;5.75;;;;;;;;;;7394762;19;19998;-71
2023/01/03 05:26:38;;;;;;;12.00;6.28;;;;;;;;;;7396727;19;20727;-71
2023/01/03 05:29:04;;;;;;;13.30;6.15;;;;;;;;;;7397591;19;20026;-71
2023/01/03 05:31:29;;;;;;;9.25;5.72;;;;;;;;;;7398405;19;20007;-71
2023/01/03 05:33:55;;;;;;;12.65;6.45;;;;;;;;;;7396348;19;20054;-71
2023/01/03 05:36:21;;;;;;;11.05;5.70;;;;;;;;;;7397126;19;20005;-71
2023/01/03 05:38:46;;;;;;;9.27;5.25;;;;;;;;;;7397276;19;19998;-71
2023/01/03 05:41:12;;;;;;;13.30;6.85;;;;;;;;;;7396993;19;19994;-72
2023/01/03 05:43:37;;;;;;;8.70;5.07;;;;;;;;;;7393114;19;20418;-71
2023/01/03 05:46:03;;;;;;;10.57;6.53;;;;;;;;;;7396690;19;19990;-71
2023/01/03 05:48:28;;;;;;;10.70;6.38;;;;;;;;;;7393808;19;19998;-71
2023/01/03 05:50:56;;;;;;;12.10;6.65;;;;;;;;;;7393419;19;19994;-71
2023/01/03 05:53:21;;;;;;;12.30;6.03;;;;;;;;;;7394168;19;19997;-70
2023/01/03 05:55:47;;;;;;;12.20;6.15;;;;;;;;;;7392701;19;20519;-70
2023/01/03 05:58:12;;;;;;;13.25;6.32;;;;;;;;;;7393417;19;19996;-71
2023/01/03 06:00:38;;;;;;;10.60;5.75;;;;;;;;;;7393277;19;19997;-71
2023/01/03 06:03:03;;;;;;;12.52;6.25;;;;;;;;;;7394005;19;20010;-71
2023/01/03 06:05:28;;;;;;;13.05;6.07;;;;;;;;;;7394388;19;20392;-70
2023/01/03 06:07:53;;;;;;;14.93;6.57;;;;;;;;;;7397163;19;20349;-71
2023/01/03 06:10:19;;;;;;;12.20;6.40;;;;;;;;;;7395853;19;20014;-71
2023/01/03 06:12:44;;;;;;;14.20;6.50;;;;;;;;;;7391860;19;20005;-71
2023/01/03 06:15:10;;;;;;;11.95;6.28;;;;;;;;;;7396826;19;19997;-71
2023/01/03 06:17:53;;;;;;;18.13;6.68;;;;;;;;;;7393351;19;19994;-71
2023/01/03 06:20:19;;;;;;;17.58;6.70;;;;;;;;;;7393686;19;20032;-72
2023/01/03 06:22:44;;;;;;;13.02;6.63;;;;;;;;;;7389724;19;20010;-72
2023/01/03 06:25:10;;;;;;;12.27;6.90;;;;;;;;;;7393843;19;20006;-72
2023/01/03 06:27:35;;;;;;;14.77;6.45;;;;;;;;;;7395979;19;20011;-70
2023/01/03 06:30:01;;;;;;;16.60;6.75;;;;;;;;;;7392732;19;19998;-70
2023/01/03 06:32:26;;;;;;;13.48;6.47;;;;;;;;;;7390560;19;20006;-71
2023/01/03 06:34:51;;;;;;;12.93;7.10;;;;;;;;;;7391593;19;20059;-70
2023/01/03 06:37:17;;;;;;;12.38;6.55;;;;;;;;;;7390300;19;20054;-70
2023/01/03 06:39:42;;;;;;;16.73;7.45;;;;;;;;;;7392547;19;20007;-70
2023/01/03 06:53:13;;;;;;;11.95;6.80;;;;;;;;;;7394457;19;20080;-71
2023/01/03 06:55:40;;;;;;;13.27;7.47;;;;;;;;;;7392918;19;20392;-71
2023/01/03 06:58:06;;;;;;;12.82;6.93;;;;;;;;;;7396004;19;20002;-71
2023/01/03 07:00:31;;;;;;;12.95;7.03;;;;;;;;;;7391841;19;19999;-71
2023/01/03 07:02:57;;;;;;;12.48;7.38;;;;;;;;;;7390075;19;20029;-71
2023/01/03 07:05:22;;;;;;;15.27;6.82;;;;;;;;;;7394420;19;20035;-70
2023/01/03 07:07:48;;;;;;;13.48;6.55;;;;;;;;;;7392614;19;19995;-72
2023/01/03 07:10:13;;;;;;;12.70;6.38;;;;;;;;;;7393780;19;20467;-70
2023/01/03 07:15:22;;;;;;;10.48;5.65;;;;;;;;;;7390806;19;20021;-71
2023/01/03 07:17:48;;;;;;;16.73;7.68;;;;;;;;;;7394463;19;19999;-71
2023/01/03 07:20:13;;;;;;;13.38;7.07;;;;;;;;;;7391604;19;20461;-72
2023/01/03 07:22:38;;;;;;;22.70;8.75;;;;;;;;;;7386636;19;19995;-72
2023/01/03 07:25:04;;;;;;;16.80;6.75;;;;;;;;;;7389397;19;19999;-71
2023/01/03 07:27:29;;;;;;;18.20;7.80;;;;;;;;;;7387205;19;20013;-71
2023/01/03 07:29:55;;;;;;;21.33;6.95;;;;;;;;;;7391023;19;20328;-71
2023/01/03 07:32:20;;;;;;;19.45;8.02;;;;;;;;;;7389299;19;19990;-71
2023/01/03 07:34:45;;;;;;;23.08;7.45;;;;;;;;;;7390297;19;20082;-72
2023/01/03 07:37:11;;;;;;;22.15;7.30;;;;;;;;;;7389024;19;20416;-72
2023/01/03 07:39:36;;;;;;;14.95;7.35;;;;;;;;;;7390207;19;20314;-71
2023/01/03 07:44:48;;;;;;;15.80;7.45;;;;;;;;;;7389163;19;20022;-72
2023/01/03 07:47:13;;;;;;;12.80;6.68;;;;;;;;;;7384075;19;20383;-72
2023/01/03 07:49:39;;;;;;;14.23;7.70;;;;;;;;;;7380698;19;19998;-72
2023/01/03 07:52:04;;;;;;;12.23;7.18;;;;;;;;;;7384228;19;20009;-72
2023/01/03 07:54:29;;;;;;;12.43;7.60;;;;;;;;;;7386535;19;20005;-72
2023/01/03 07:56:54;;;;;;;16.77;7.47;;;;;;;;;;7388115;19;20010;-78
2023/01/03 07:59:20;;;;;;;13.40;7.38;;;;;;;;;;7390279;19;20027;-77
2023/01/03 08:01:45;;;;;;;13.63;7.72;;;;;;;;;;7388629;19;20023;-78
2023/01/03 08:04:10;;;;;;;12.77;7.32;;;;;;;;;;7389165;19;19990;-78
2023/01/03 08:06:36;;;;;;;16.00;7.32;;;;;;;;;;7389218;19;20026;-78
2023/01/03 08:14:29;;;;;;;20.65;7.53;;;;;;;;;;7383578;19;20031;-73
2023/01/03 08:16:55;;;;;;;19.33;7.05;;;;;;;;;;7385157;19;19999;-78
2023/01/03 08:19:20;;;;;;;21.55;8.38;;;;;;;;;;7383269;19;20023;-77
2023/01/03 08:21:45;;;;;;;18.58;7.88;;;;;;;;;;7387576;19;20036;-78
2023/01/03 08:24:11;;;;;;;17.25;7.63;;;;;;;;;;7388881;19;19994;-78
2023/01/03 08:26:36;;;;;;;14.70;7.10;;;;;;;;;;7388856;19;20552;-78
2023/01/03 08:29:01;;;;;;;14.85;8.15;;;;;;;;;;7390749;19;19999;-79
2023/01/03 08:31:32;;;;;;;18.50;8.43;;;;;;;;;;7390496;19;19998;-77
2023/01/03 08:34:02;;;;;;;18.20;8.00;;;;;;;;;;7388886;19;19998;-78
2023/01/03 08:36:32;;;;;;;16.73;7.10;;;;;;;;;;7395630;19;20009;-76
2023/01/03 08:39:12;;;;;;;17.42;7.10;;;;;;;;;;7398251;19;20367;-76
2023/01/03 08:41:42;;;;;;;16.10;5.88;;;;;;;;;;7395969;19;20021;-77
2023/01/03 08:44:09;;;;;;;40.50;6.37;;;;;;;;;;7393860;19;20003;-77
2023/01/03 08:46:37;;;;;;;123.05;7.93;;;;;;;;;;7398038;19;20006;-77
2023/01/03 08:49:03;;;;;;;67.53;7.38;;;;;;;;;;7399814;19;19991;-77
2023/01/03 08:51:28;;;;;;;34.53;5.95;;;;;;;;;;7395365;19;20046;-76
2023/01/03 08:53:54;;;;;;;63.15;7.18;;;;;;;;;;7393592;19;20077;-76
2023/01/03 08:56:19;;;;;;;46.22;7.85;;;;;;;;;;7396435;19;20022;-77
2023/01/03 08:58:45;;;;;;;49.83;8.80;;;;;;;;;;7397848;19;20015;-77
2023/01/03 09:01:10;;;;;;;69.28;7.72;;;;;;;;;;7394397;19;20370;-76
2023/01/03 09:03:36;;;;;;;84.05;9.02;;;;;;;;;;7395166;19;19995;-76
2023/01/03 09:06:02;;;;;;;36.58;6.60;;;;;;;;;;7395117;19;20011;-77
2023/01/03 09:08:34;;;;;;;24.15;6.57;;;;;;;;;;7397283;19;20006;-77
2023/01/03 09:11:07;;;;;;;46.05;7.38;;;;;;;;;;7398362;19;19999;-77
2023/01/03 09:13:33;;;;;;;21.50;7.97;;;;;;;;;;7394404;19;19998;-78
2023/01/03 09:16:02;;;;;;;28.05;6.13;;;;;;;;;;7395322;19;19995;-77
2023/01/03 09:18:27;;;;;;;42.38;7.90;;;;;;;;;;7395035;19;20003;-78
2023/01/03 09:20:53;;;;;;;56.03;7.55;;;;;;;;;;7395133;19;19998;-76
2023/01/03 09:23:18;;;;;;;36.25;9.60;;;;;;;;;;7393200;19;19998;-76
2023/01/03 09:25:45;;;;;;;70.60;8.57;;;;;;;;;;7393849;19;19999;-76
2023/01/03 09:28:11;;;;;;;102.70;9.52;;;;;;;;;;7397277;19;19994;-76
2023/01/03 09:30:37;;;;;;;36.53;8.75;;;;;;;;;;7395199;19;20083;-76
2023/01/03 09:33:03;;;;;;;18.70;8.50;;;;;;;;;;7394948;19;20003;-76
2023/01/03 09:35:29;;;;;;;43.50;10.27;;;;;;;;;;7394918;19;20005;-76
2023/01/03 09:37:54;;;;;;;34.78;8.75;;;;;;;;;;7395444;19;19995;-77
2023/01/03 09:40:19;;;;;;;27.80;7.93;;;;;;;;;;7384166;19;20516;-76
2023/01/03 09:45:32;;;;;;;11.57;6.70;;;;;;;;;;7394708;19;19997;-76
2023/01/03 09:48:00;;;;;;;10.88;6.15;;;;;;;;;;7394374;19;20007;-77
2023/01/03 09:50:40;;;;;;;12.02;7.70;;;;;;;;;;7395103;19;19999;-77
2023/01/03 10:05:06;;;;;;;9.85;6.28;;;;;;;;;;7392651;19;20011;-75
2023/01/03 10:08:27;;;;;;;10.02;5.70;;;;;;;;;;7392088;19;20002;-76
2023/01/03 10:11:08;;;;;;;12.30;5.53;;;;;;;;;;7390471;19;19998;-77
2023/01/03 10:14:03;;;;;;;9.35;5.53;;;;;;;;;;7392227;19;20014;-77
2023/01/03 10:16:55;;;;;;;8.77;5.80;;;;;;;;;;7389854;19;20003;-76
2023/01/03 10:19:42;;;;;;;8.45;5.50;;;;;;;;;;7391701;19;20002;-76
2023/01/03 10:22:14;;;;;;;11.13;5.28;;;;;;;;;;7390684;19;20009;-76
2023/01/03 10:24:49;;;;;;;8.35;5.72;;;;;;;;;;7392210;19;20024;-75
2023/01/03 10:27:20;;;;;;;14.50;6.15;;;;;;;;;;7387047;19;20020;-76
2023/01/03 10:29:52;;;;;;;11.68;6.28;;;;;;;;;;7394410;19;19999;-76
2023/01/03 10:32:29;;;;;;;11.20;6.35;;;;;;;;;;7392368;19;20003;-75
2023/01/03 10:35:15;;;;;;;14.02;6.53;;;;;;;;;;7392145;19;19999;-76
2023/01/03 10:37:41;;;;;;;13.93;7.03;;;;;;;;;;7391928;19;19999;-77
2023/01/03 10:40:07;;;;;;;12.63;6.05;;;;;;;;;;7390423;19;19995;-76
2023/01/03 10:42:34;;;;;;;10.25;6.63;;;;;;;;;;7389355;19;20493;-76
2023/01/03 10:45:09;;;;;;;15.02;6.18;;;;;;;;;;7392220;19;20050;-76
2023/01/03 10:47:34;;;;;;;15.25;6.78;;;;;;;;;;7390924;19;20001;-76
2023/01/03 10:50:04;;;;;;;11.55;6.90;;;;;;;;;;7392507;19;19987;-75
2023/01/03 10:52:33;;;;;;;18.52;7.32;;;;;;;;;;7391761;19;20006;-76
2023/01/03 10:55:01;;;;;;;12.07;6.90;;;;;;;;;;7394003;19;19991;-77
2023/01/03 10:57:56;;;;;;;12.10;6.93;;;;;;;;;;7389524;19;20511;-76
2023/01/03 11:00:21;;;;;;;13.93;7.45;;;;;;;;;;7393532;19;20030;-77
2023/01/03 11:02:48;;;;;;;13.68;7.07;;;;;;;;;;7389606;19;19995;-77
2023/01/03 11:05:19;;;;;;;13.25;7.32;;;;;;;;;;7393633;19;20342;-77
2023/01/03 11:07:53;;;;;;;15.50;7.72;;;;;;;;;;7394497;19;20015;-77
2023/01/03 11:10:19;;;;;;;13.18;7.10;;;;;;;;;;7390687;19;19999;-76
2023/01/03 11:12:47;;;;;;;13.00;7.15;;;;;;;;;;7389841;19;20076;-75
2023/01/03 11:15:34;;;;;;;13.57;6.93;;;;;;;;;;7393632;19;20468;-76
2023/01/03 11:18:06;;;;;;;15.52;7.32;;;;;;;;;;7393572;19;20002;-77
2023/01/03 11:20:42;;;;;;;12.40;6.93;;;;;;;;;;7391873;19;20022;-75
2023/01/03 11:23:19;;;;;;;13.73;7.85;;;;;;;;;;7391571;19;19998;-76
2023/01/03 11:26:17;;;;;;;21.17;8.50;;;;;;;;;;7389578;19;20002;-75
2023/01/03 11:28:42;;;;;;;12.73;7.68;;;;;;;;;;7388630;19;19995;-75
2023/01/03 11:31:23;;;;;;;14.88;8.32;;;;;;;;;;7391173;19;20002;-74
2023/01/03 11:34:25;;;;;;;17.02;7.80;;;;;;;;;;7388493;19;20037;-75
2023/01/03 11:36:58;;;;;;;16.05;7.78;;;;;;;;;;7388521;19;20023;-75
2023/01/03 11:39:46;;;;;;;14.85;6.82;;;;;;;;;;7389656;19;20030;-75
2023/01/03 11:42:31;;;;;;;16.13;7.10;;;;;;;;;;7387411;19;20714;-77
2023/01/03 11:45:23;;;;;;;16.95;8.38;;;;;;;;;;7389065;19;19994;-76
2023/01/03 11:48:04;;;;;;;16.20;8.18;;;;;;;;;;7392071;19;20054;-76
2023/01/03 11:50:50;;;;;;;14.50;8.18;;;;;;;;;;7385943;19;20002;-75
2023/01/03 11:53:24;;;;;;;16.60;8.48;;;;;;;;;;7383769;19;19998;-76
2023/01/03 11:56:22;;;;;;;12.88;8.43;;;;;;;;;;7389097;19;19999;-76
2023/01/03 11:58:53;;;;;;;14.30;7.93;;;;;;;;;;7389025;19;19995;-77
2023/01/03 12:01:21;;;;;;;13.60;8.13;;;;;;;;;;7388904;19;20074;-76
2023/01/03 12:04:27;;;;;;;14.38;8.32;;;;;;;;;;7387461;19;20456;-75
2023/01/03 12:07:14;;;;;;;18.45;8.90;;;;;;;;;;7387277;19;20002;-76
2023/01/03 12:10:00;;;;;;;15.75;8.77;;;;;;;;;;7389430;19;19987;-75
2023/01/03 12:12:29;;;;;;;15.00;8.07;;;;;;;;;;7392518;19;20378;-74
2023/01/03 12:18:16;;;;;;;20.95;9.27;;;;;;;;;;7386245;19;20011;-75
2023/01/03 12:20:48;;;;;;;13.90;8.05;;;;;;;;;;7392640;19;20022;-74
2023/01/03 12:23:28;;;;;;;15.48;8.10;;;;;;;;;;7392271;19;19994;-75
2023/01/03 12:25:56;;;;;;;12.07;7.35;;;;;;;;;;7395570;19;20019;-74
2023/01/03 12:28:51;;;;;;;13.85;6.85;;;;;;;;;;7395975;19;20361;-76
2023/01/03 12:31:30;;;;;;;13.85;6.80;;;;;;;;;;7394144;19;20393;-75
2023/01/03 12:34:21;;;;;;;10.50;5.28;;;;;;;;;;7394750;19;20311;-75
2023/01/03 12:37:02;;;;;;;8.98;4.80;;;;;;;;;;7394213;19;20026;-74
2023/01/03 12:39:46;;;;;;;9.20;3.75;;;;;;;;;;7397052;19;20496;-75
2023/01/03 12:42:33;;;;;;;7.90;3.58;;;;;;;;;;7395186;19;20013;-76
2023/01/03 12:45:21;;;;;;;6.38;2.88;;;;;;;;;;7396158;19;20003;-75
2023/01/03 12:48:03;;;;;;;9.13;3.50;;;;;;;;;;7397621;19;19994;-75
2023/01/03 12:50:39;;;;;;;7.43;3.40;;;;;;;;;;7396597;19;20082;-76
2023/01/03 12:53:39;;;;;;;8.52;3.17;;;;;;;;;;7396124;19;20452;-74
2023/01/03 12:56:16;;;;;;;6.13;3.17;;;;;;;;;;7392533;19;19999;-75
2023/01/03 12:59:05;;;;;;;8.95;3.10;;;;;;;;;;7395994;19;20006;-74
2023/01/03 13:01:39;;;;;;;6.63;2.95;;;;;;;;;;7394218;19;20030;-75
2023/01/03 13:04:16;;;;;;;5.88;2.83;;;;;;;;;;7390330;19;20013;-74
2023/01/03 13:06:51;;;;;;;8.70;3.00;;;;;;;;;;7393394;19;19999;-74
2023/01/03 13:09:30;;;;;;;7.95;2.95;;;;;;;;;;7395914;19;20007;-74
2023/01/03 13:12:02;;;;;;;8.80;3.42;;;;;;;;;;7397748;19;20011;-75
2023/01/03 13:14:28;;;;;;;8.85;3.03;;;;;;;;;;7395435;19;20011;-74
2023/01/03 13:17:05;;;;;;;11.57;3.25;;;;;;;;;;7395735;19;20003;-74
2023/01/03 13:19:34;;;;;;;7.00;3.00;;;;;;;;;;7395340;19;20003;-76
2023/01/03 13:22:17;;;;;;;8.00;2.95;;;;;;;;;;7391912;19;20006;-74
2023/01/03 13:24:44;;;;;;;7.00;2.88;;;;;;;;;;7395138;19;20006;-74
2023/01/03 13:27:15;;;;;;;8.35;3.05;;;;;;;;;;7391495;19;20002;-74
2023/01/03 13:29:48;;;;;;;6.07;2.88;;;;;;;;;;7393896;19;20027;-75
2023/01/03 13:32:18;;;;;;;10.15;3.35;;;;;;;;;;7393336;19;20095;-75
2023/01/03 13:34:44;;;;;;;4.00;2.50;;;;;;;;;;7394356;19;20010;-74
2023/01/03 13:37:15;;;;;;;8.35;2.63;;;;;;;;;;7389073;19;20018;-74
2023/01/03 13:39:44;;;;;;;5.47;2.42;;;;;;;;;;7394350;19;20007;-76
2023/01/03 13:42:28;;;;;;;7.40;3.28;;;;;;;;;;7392695;19;20070;-76
2023/01/03 13:45:14;;;;;;;5.95;2.70;;;;;;;;;;7394751;19;20007;-75
2023/01/03 13:47:46;;;;;;;11.13;2.65;;;;;;;;;;7393303;19;20003;-76
2023/01/03 13:50:21;;;;;;;6.13;3.22;;;;;;;;;;7395546;19;20006;-75
2023/01/03 13:52:59;;;;;;;7.50;2.50;;;;;;;;;;7397537;19;20066;-75
2023/01/03 13:55:34;;;;;;;5.75;2.75;;;;;;;;;;7391243;19;20007;-76
2023/01/03 13:57:59;;;;;;;5.07;2.40;;;;;;;;;;7391544;19;20031;-71
2023/01/03 14:00:26;;;;;;;6.90;2.72;;;;;;;;;;7394011;19;19998;-71
2023/01/03 14:03:25;;;;;;;6.32;2.88;;;;;;;;;;7391842;19;20088;-69
2023/01/03 14:06:10;;;;;;;4.70;2.47;;;;;;;;;;7394766;19;20003;-71
2023/01/03 14:08:54;;;;;;;7.80;3.20;;;;;;;;;;7392819;19;20058;-74
2023/01/03 14:11:41;;;;;;;5.93;2.53;;;;;;;;;;7392221;19;19998;-71
2023/01/03 14:14:12;;;;;;;6.65;2.72;;;;;;;;;;7392514;19;20031;-70
2023/01/03 14:16:49;;;;;;;4.07;2.53;;;;;;;;;;7393863;19;20493;-72
2023/01/03 14:19:22;;;;;;;5.25;2.97;;;;;;;;;;7391045;19;20490;-72
2023/01/03 14:21:56;;;;;;;6.80;2.60;;;;;;;;;;7391861;19;20010;-70
2023/01/03 14:24:25;;;;;;;7.25;3.17;;;;;;;;;;7391769;19;19995;-71
2023/01/03 14:26:52;;;;;;;6.78;3.22;;;;;;;;;;7393083;19;19998;-71
2023/01/03 14:29:21;;;;;;;8.77;2.97;;;;;;;;;;7391023;19;20097;-72
2023/01/03 14:31:49;;;;;;;7.07;3.08;;;;;;;;;;7392016;19;20010;-71
2023/01/03 14:34:31;;;;;;;8.27;3.63;;;;;;;;;;7389895;19;19998;-71
2023/01/03 14:37:18;;;;;;;7.40;3.00;;;;;;;;;;7392043;19;20009;-71
2023/01/03 14:39:52;;;;;;;7.13;2.83;;;;;;;;;;7393590;19;19999;-71
2023/01/03 14:42:18;;;;;;;6.22;3.40;;;;;;;;;;7392333;19;20440;-71
2023/01/03 14:44:58;;;;;;;7.72;3.35;;;;;;;;;;7391565;19;20378;-71
2023/01/03 14:47:36;;;;;;;9.98;3.33;;;;;;;;;;7390081;19;20437;-71
2023/01/03 14:50:04;;;;;;;5.70;3.10;;;;;;;;;;7389672;19;20005;-70
2023/01/03 14:52:36;;;;;;;7.70;3.58;;;;;;;;;;7392721;19;20031;-72
2023/01/03 14:55:24;;;;;;;7.50;3.42;;;;;;;;;;7393503;19;19998;-72
2023/01/03 14:57:51;;;;;;;6.35;3.08;;;;;;;;;;7390060;19;19995;-71
2023/01/03 15:00:22;;;;;;;6.55;3.55;;;;;;;;;;7391613;19;20351;-71
2023/01/03 15:02:48;;;;;;;8.00;3.20;;;;;;;;;;7389667;19;20098;-71
2023/01/03 15:05:30;;;;;;;6.07;3.10;;;;;;;;;;7384871;19;20058;-71
2023/01/03 15:08:13;;;;;;;8.43;3.45;;;;;;;;;;7387200;19;20326;-71
2023/01/03 15:10:43;;;;;;;7.15;3.25;;;;;;;;;;7391158;19;20002;-71
2023/01/03 15:13:20;;;;;;;9.75;3.50;;;;;;;;;;7391063;19;19994;-72
2023/01/03 15:15:56;;;;;;;6.38;3.10;;;;;;;;;;7393298;19;19994;-66
2023/01/03 15:18:28;;;;;;;7.80;3.35;;;;;;;;;;7390431;19;19990;-67
2023/01/03 15:20:55;;;;;;;6.93;3.45;;;;;;;;;;7392526;19;20074;-67
2023/01/03 15:23:27;;;;;;;7.18;3.47;;;;;;;;;;7390087;19;20078;-73
2023/01/03 15:25:53;;;;;;;6.53;2.97;;;;;;;;;;7376948;19;20267;-73
2023/01/03 15:28:28;;;;;;;8.05;3.65;;;;;;;;;;7384422;19;20505;-73
2023/01/03 15:30:58;;;;;;;6.97;3.55;;;;;;;;;;7385341;19;20027;-73
2023/01/03 15:33:34;;;;;;;9.43;3.53;;;;;;;;;;7378142;19;20018;-73
2023/01/03 15:36:12;;;;;;;6.40;3.20;;;;;;;;;;7382145;19;19998;-74
2023/01/03 15:38:41;;;;;;;8.32;3.50;;;;;;;;;;7386607;19;20031;-74
2023/01/03 15:44:12;;;;;;;9.07;3.40;;;;;;;;;;7381922;19;20363;-74
2023/01/03 15:46:42;;;;;;;7.88;3.75;;;;;;;;;;7385363;19;20002;-73
2023/01/03 15:49:11;;;;;;;7.82;4.00;;;;;;;;;;7383609;19;20580;-74
2023/01/03 15:51:37;;;;;;;7.95;3.65;;;;;;;;;;7386542;19;20407;-73
2023/01/03 15:54:02;;;;;;;10.05;4.38;;;;;;;;;;7383208;19;20002;-72
2023/01/03 15:56:33;;;;;;;10.18;3.47;;;;;;;;;;7383456;19;20011;-72
2023/01/03 15:59:02;;;;;;;8.95;3.85;;;;;;;;;;7383894;19;19995;-73
2023/01/03 16:01:27;;;;;;;10.30;4.25;;;;;;;;;;7382182;19;20010;-73
2023/01/03 16:03:53;;;;;;;9.75;3.60;;;;;;;;;;7385561;19;20469;-73
2023/01/03 16:06:18;;;;;;;8.38;3.88;;;;;;;;;;7384719;19;20036;-73
2023/01/03 16:08:44;;;;;;;9.15;3.85;;;;;;;;;;7384775;19;20090;-72
2023/01/03 16:11:25;;;;;;;9.52;4.28;;;;;;;;;;7380652;19;20002;-73
2023/01/03 16:13:54;;;;;;;12.82;4.63;;;;;;;;;;7382861;19;20021;-71
2023/01/03 16:16:38;;;;;;;8.48;3.80;;;;;;;;;;7382456;19;20047;-71